Time;durP1;ratioP1;P1;durP2;ratioP2;P2;SDS_P1;SDS_P2;PMS_P1;PMS_P2;Temp;Humidity;BMP_temperature;BMP_pressure;BME280_temperature;BME280_humidity;BME280_pressure;Samples;Min_cycle;Max_cycle;Signal;HPM_P1;HPM_P2
2021/04/20 00:01:00;;;;;;;21.00;12.23;;;;;;;;;;5090676;28;20433;-52
2021/04/20 00:03:26;;;;;;;15.13;11.47;;;;;;;;;;5093272;28;20436;-55
2021/04/20 00:05:53;;;;;;;15.90;12.53;;;;;;;;;;5094429;28;20403;-55
2021/04/20 00:08:19;;;;;;;15.73;12.67;;;;;;;;;;5094402;28;20771;-52
2021/04/20 00:10:45;;;;;;;20.07;12.30;;;;;;;;;;5094533;28;20431;-52
2021/04/20 00:13:11;;;;;;;23.17;12.30;;;;;;;;;;5094373;28;20461;-52
2021/04/20 00:15:37;;;;;;;20.48;11.48;;;;;;;;;;5094447;28;20405;-52
2021/04/20 00:18:05;;;;;;;17.73;12.00;;;;;;;;;;5094245;28;20224;-51
2021/04/20 00:20:31;;;;;;;18.77;13.10;;;;;;;;;;5094438;28;20435;-52
2021/04/20 00:22:57;;;;;;;18.38;12.43;;;;;;;;;;5094150;28;20492;-52
2021/04/20 00:25:24;;;;;;;17.13;12.27;;;;;;;;;;5094090;28;20171;-52
2021/04/20 00:28:05;;;;;;;17.07;13.23;;;;;;;;;;5094280;28;20451;-52
2021/04/20 00:30:32;;;;;;;21.80;14.97;;;;;;;;;;5093638;28;20415;-52
2021/04/20 00:32:58;;;;;;;30.03;14.40;;;;;;;;;;5094284;28;20404;-52
2021/04/20 00:35:24;;;;;;;21.53;13.40;;;;;;;;;;5093887;28;20958;-52
2021/04/20 00:37:50;;;;;;;16.80;12.90;;;;;;;;;;5094041;28;20840;-52
2021/04/20 00:40:17;;;;;;;14.57;11.50;;;;;;;;;;5093744;28;20419;-52
2021/04/20 00:42:53;;;;;;;20.00;12.83;;;;;;;;;;5094029;28;20966;-51
2021/04/20 00:45:23;;;;;;;25.38;11.60;;;;;;;;;;5093638;28;20401;-52
2021/04/20 00:47:49;;;;;;;15.37;12.80;;;;;;;;;;5093917;28;20166;-55
2021/04/20 00:50:16;;;;;;;17.42;12.02;;;;;;;;;;5092290;28;20430;-53
2021/04/20 00:52:43;;;;;;;21.77;12.23;;;;;;;;;;5092313;28;20175;-52
2021/04/20 00:55:09;;;;;;;18.08;12.95;;;;;;;;;;5093410;28;20542;-53
2021/04/20 00:57:35;;;;;;;17.15;12.27;;;;;;;;;;5093628;28;20204;-54
2021/04/20 01:00:01;;;;;;;18.07;12.50;;;;;;;;;;5093519;28;20198;-54
2021/04/20 01:02:28;;;;;;;16.90;12.50;;;;;;;;;;5092994;28;20392;-55
2021/04/20 01:04:54;;;;;;;19.30;13.60;;;;;;;;;;5092863;28;20693;-53
2021/04/20 01:07:20;;;;;;;18.15;12.85;;;;;;;;;;5092821;28;20171;-54
2021/04/20 01:09:48;;;;;;;20.70;13.30;;;;;;;;;;5093354;28;20687;-52
2021/04/20 01:12:14;;;;;;;21.85;14.57;;;;;;;;;;5093438;28;20166;-55
2021/04/20 01:14:40;;;;;;;21.90;14.48;;;;;;;;;;5092665;28;20166;-54
2021/04/20 01:17:07;;;;;;;21.03;13.10;;;;;;;;;;5092841;28;20256;-52
2021/04/20 01:19:33;;;;;;;23.10;14.45;;;;;;;;;;5093324;28;20473;-55
2021/04/20 01:22:00;;;;;;;21.67;13.35;;;;;;;;;;5093063;28;20252;-54
2021/04/20 01:24:27;;;;;;;26.52;14.43;;;;;;;;;;5093232;28;20167;-53
2021/04/20 01:26:54;;;;;;;24.67;14.63;;;;;;;;;;5092900;28;20170;-52
2021/04/20 01:29:22;;;;;;;25.40;14.90;;;;;;;;;;5092855;28;20190;-52
2021/04/20 01:31:48;;;;;;;31.38;14.77;;;;;;;;;;5093432;28;20172;-52
2021/04/20 01:34:14;;;;;;;25.70;15.40;;;;;;;;;;5092786;28;20256;-52
2021/04/20 01:36:40;;;;;;;24.58;14.85;;;;;;;;;;5091241;28;20464;-55
2021/04/20 01:39:08;;;;;;;26.95;16.08;;;;;;;;;;5092717;28;20310;-55
2021/04/20 01:41:35;;;;;;;25.92;14.13;;;;;;;;;;5092892;28;20171;-52
2021/04/20 01:44:01;;;;;;;30.65;16.08;;;;;;;;;;5092628;28;20195;-53
2021/04/20 01:46:27;;;;;;;26.42;17.15;;;;;;;;;;5092524;28;20177;-53
2021/04/20 01:48:53;;;;;;;24.98;17.33;;;;;;;;;;5092328;28;20192;-52
2021/04/20 01:51:20;;;;;;;25.23;15.50;;;;;;;;;;5092630;28;20189;-52
2021/04/20 01:53:47;;;;;;;20.38;14.57;;;;;;;;;;5092594;28;20166;-52
2021/04/20 01:56:14;;;;;;;21.00;13.75;;;;;;;;;;5092171;28;20248;-52
2021/04/20 01:58:41;;;;;;;18.60;13.65;;;;;;;;;;5092310;28;20205;-51
2021/04/20 02:01:27;;;;;;;22.38;14.13;;;;;;;;;;5092352;28;20170;-55
2021/04/20 02:03:53;;;;;;;21.27;13.57;;;;;;;;;;5092193;28;20173;-54
2021/04/20 02:06:20;;;;;;;17.65;13.18;;;;;;;;;;5091978;28;20158;-52
2021/04/20 02:08:49;;;;;;;18.25;12.57;;;;;;;;;;5092378;28;20648;-52
2021/04/20 02:11:16;;;;;;;19.20;13.45;;;;;;;;;;5092416;28;20544;-52
2021/04/20 02:13:42;;;;;;;19.38;12.80;;;;;;;;;;5092300;28;20192;-52
2021/04/20 02:16:08;;;;;;;18.50;13.60;;;;;;;;;;5091721;28;20634;-51
2021/04/20 02:18:36;;;;;;;16.23;12.48;;;;;;;;;;5092018;28;20451;-51
2021/04/20 02:21:02;;;;;;;23.75;15.65;;;;;;;;;;5092097;28;20158;-52
2021/04/20 02:23:28;;;;;;;29.77;17.77;;;;;;;;;;5092439;28;20172;-52
2021/04/20 02:25:55;;;;;;;30.60;17.83;;;;;;;;;;5091007;28;20189;-52
2021/04/20 02:28:21;;;;;;;32.25;17.40;;;;;;;;;;5092222;28;20169;-57
2021/04/20 02:30:48;;;;;;;35.85;17.20;;;;;;;;;;5092219;28;20189;-57
2021/04/20 02:33:14;;;;;;;31.08;17.25;;;;;;;;;;5092181;28;20177;-53
2021/04/20 02:35:40;;;;;;;33.67;17.70;;;;;;;;;;5091827;28;20169;-54
2021/04/20 02:38:09;;;;;;;33.92;16.35;;;;;;;;;;5091710;28;20675;-54
2021/04/20 02:40:36;;;;;;;28.50;18.25;;;;;;;;;;5091927;28;20182;-51
2021/04/20 02:43:02;;;;;;;25.65;16.15;;;;;;;;;;5091625;28;20189;-56
2021/04/20 02:45:28;;;;;;;18.33;13.63;;;;;;;;;;5091497;28;20165;-55
2021/04/20 02:47:55;;;;;;;19.33;14.38;;;;;;;;;;5091663;28;20178;-55
2021/04/20 02:50:22;;;;;;;19.77;13.30;;;;;;;;;;5091689;28;20189;-52
2021/04/20 02:52:50;;;;;;;17.00;12.60;;;;;;;;;;5091337;28;20262;-54
2021/04/20 02:55:17;;;;;;;21.90;14.50;;;;;;;;;;5091210;28;20545;-54
2021/04/20 02:57:48;;;;;;;16.65;12.63;;;;;;;;;;5091285;28;20200;-53
2021/04/20 03:00:16;;;;;;;19.17;13.63;;;;;;;;;;5091222;28;20212;-53
2021/04/20 03:02:43;;;;;;;22.60;13.48;;;;;;;;;;5091303;28;20161;-54
2021/04/20 03:05:11;;;;;;;21.98;15.13;;;;;;;;;;5090902;28;20165;-54
2021/04/20 03:07:37;;;;;;;23.13;14.05;;;;;;;;;;5091289;28;20167;-55
2021/04/20 03:10:03;;;;;;;20.27;13.63;;;;;;;;;;5091031;28;20295;-52
2021/04/20 03:12:29;;;;;;;23.98;15.23;;;;;;;;;;5091197;28;20174;-53
2021/04/20 03:14:55;;;;;;;22.30;14.03;;;;;;;;;;5090966;28;20243;-53
2021/04/20 03:17:21;;;;;;;26.50;15.30;;;;;;;;;;5091001;28;20451;-54
2021/04/20 03:19:48;;;;;;;25.50;14.90;;;;;;;;;;5090801;28;20404;-52
2021/04/20 03:22:14;;;;;;;28.15;16.02;;;;;;;;;;5091051;28;20443;-52
2021/04/20 03:24:59;;;;;;;22.27;14.98;;;;;;;;;;5090799;28;20226;-51
2021/04/20 03:27:25;;;;;;;26.05;15.88;;;;;;;;;;5090917;28;20733;-52
2021/04/20 03:29:51;;;;;;;21.97;15.43;;;;;;;;;;5090780;28;20256;-52
2021/04/20 03:32:16;;;;;;;26.07;16.40;;;;;;;;;;5090972;28;20909;-52
2021/04/20 03:34:47;;;;;;;25.97;15.30;;;;;;;;;;5090946;28;20484;-52
2021/04/20 03:37:15;;;;;;;21.38;14.60;;;;;;;;;;5089988;28;20447;-54
2021/04/20 03:39:43;;;;;;;21.45;14.38;;;;;;;;;;5090933;28;20266;-53
2021/04/20 03:42:11;;;;;;;21.40;14.25;;;;;;;;;;5090635;28;20197;-54
2021/04/20 03:44:37;;;;;;;24.80;15.10;;;;;;;;;;5090911;28;20173;-52
2021/04/20 03:47:04;;;;;;;21.33;13.67;;;;;;;;;;5090343;28;20166;-53
2021/04/20 03:49:33;;;;;;;20.02;13.80;;;;;;;;;;5090730;28;20981;-52
2021/04/20 03:51:59;;;;;;;23.00;13.45;;;;;;;;;;5090512;28;20174;-54
2021/04/20 03:54:26;;;;;;;23.15;14.32;;;;;;;;;;5090726;28;20165;-55
2021/04/20 03:56:54;;;;;;;31.80;14.10;;;;;;;;;;5090232;28;20613;-52
2021/04/20 03:59:21;;;;;;;19.90;13.20;;;;;;;;;;5090485;28;20287;-52
2021/04/20 04:01:49;;;;;;;23.15;13.73;;;;;;;;;;5090418;28;20663;-54
2021/04/20 04:04:34;;;;;;;25.08;14.18;;;;;;;;;;5090503;28;20173;-52
2021/04/20 04:07:02;;;;;;;22.52;14.50;;;;;;;;;;5090424;28;20289;-54
2021/04/20 04:09:28;;;;;;;19.45;13.23;;;;;;;;;;5090547;28;20181;-52
2021/04/20 04:12:01;;;;;;;24.60;13.88;;;;;;;;;;5092056;28;20185;-52
2021/04/20 04:14:29;;;;;;;23.35;14.38;;;;;;;;;;5090434;28;20174;-52
2021/04/20 04:17:00;;;;;;;20.60;13.30;;;;;;;;;;5089950;28;20192;-52
2021/04/20 04:19:31;;;;;;;25.80;15.32;;;;;;;;;;5090319;28;20185;-52
2021/04/20 04:22:02;;;;;;;25.55;14.73;;;;;;;;;;5090480;28;20169;-51
2021/04/20 04:24:31;;;;;;;21.80;13.98;;;;;;;;;;5090437;28;20172;-53
2021/04/20 04:26:58;;;;;;;25.02;15.90;;;;;;;;;;5090228;28;20189;-52
2021/04/20 04:29:27;;;;;;;32.03;14.13;;;;;;;;;;5090110;28;20223;-54
2021/04/20 04:31:54;;;;;;;25.00;13.52;;;;;;;;;;5090390;28;20254;-51
2021/04/20 04:34:21;;;;;;;21.80;14.40;;;;;;;;;;5090187;28;20196;-52
2021/04/20 04:36:47;;;;;;;21.10;14.00;;;;;;;;;;5090179;28;20201;-57
2021/04/20 04:39:14;;;;;;;19.75;13.77;;;;;;;;;;5090226;28;20248;-55
2021/04/20 04:41:40;;;;;;;23.23;14.57;;;;;;;;;;5090279;28;20161;-52
2021/04/20 04:44:06;;;;;;;21.75;13.90;;;;;;;;;;5090260;28;20176;-53
2021/04/20 04:46:32;;;;;;;21.67;14.37;;;;;;;;;;5088688;28;20249;-52
2021/04/20 04:49:00;;;;;;;20.52;14.02;;;;;;;;;;5090495;28;20434;-52
2021/04/20 04:51:27;;;;;;;20.33;13.65;;;;;;;;;;5093896;28;20167;-52
2021/04/20 04:53:53;;;;;;;20.60;13.15;;;;;;;;;;5093933;28;20171;-51
2021/04/20 04:56:19;;;;;;;20.03;13.37;;;;;;;;;;5093430;28;20241;-52
2021/04/20 04:58:45;;;;;;;23.27;13.45;;;;;;;;;;5093344;28;20457;-52
2021/04/20 05:01:13;;;;;;;22.90;14.95;;;;;;;;;;5093623;28;20165;-51
2021/04/20 05:03:40;;;;;;;22.60;14.68;;;;;;;;;;5093294;28;20173;-51
2021/04/20 05:06:06;;;;;;;19.73;13.10;;;;;;;;;;5092779;28;20208;-54
2021/04/20 05:08:32;;;;;;;22.30;14.10;;;;;;;;;;5092889;28;20248;-53
2021/04/20 05:11:01;;;;;;;22.70;14.13;;;;;;;;;;5092718;28;20174;-54
2021/04/20 05:13:27;;;;;;;22.67;15.15;;;;;;;;;;5092972;28;20177;-54
2021/04/20 05:15:53;;;;;;;25.95;15.25;;;;;;;;;;5092663;28;20158;-53
2021/04/20 05:18:20;;;;;;;24.17;15.73;;;;;;;;;;5092660;28;20196;-54
2021/04/20 05:20:47;;;;;;;23.38;15.70;;;;;;;;;;5092770;28;20429;-53
2021/04/20 05:23:16;;;;;;;29.15;16.70;;;;;;;;;;5092601;28;20198;-52
2021/04/20 05:25:43;;;;;;;26.80;15.80;;;;;;;;;;5092941;28;20195;-55
2021/04/20 05:28:09;;;;;;;22.70;15.10;;;;;;;;;;5092827;28;20173;-55
2021/04/20 05:30:35;;;;;;;25.75;15.52;;;;;;;;;;5092516;28;20195;-55
2021/04/20 05:33:02;;;;;;;31.52;17.30;;;;;;;;;;5092559;28;20686;-54
2021/04/20 05:35:28;;;;;;;25.67;14.70;;;;;;;;;;5093007;28;20215;-54
2021/04/20 05:37:54;;;;;;;24.13;16.33;;;;;;;;;;5092733;28;20189;-54
2021/04/20 05:40:22;;;;;;;28.98;17.42;;;;;;;;;;5092748;28;20668;-54
2021/04/20 05:42:50;;;;;;;28.27;16.20;;;;;;;;;;5092871;28;20159;-53
2021/04/20 05:45:16;;;;;;;25.55;18.13;;;;;;;;;;5092399;28;20166;-54
2021/04/20 05:47:44;;;;;;;22.40;15.63;;;;;;;;;;5092777;28;20165;-55
2021/04/20 05:50:17;;;;;;;23.83;16.30;;;;;;;;;;5092926;28;20428;-55
2021/04/20 05:52:43;;;;;;;23.50;16.95;;;;;;;;;;5092533;28;20600;-55
2021/04/20 05:55:09;;;;;;;26.00;16.27;;;;;;;;;;5092369;28;20176;-55
2021/04/20 05:57:36;;;;;;;29.60;17.42;;;;;;;;;;5092503;28;20189;-54
2021/04/20 06:00:03;;;;;;;24.02;16.80;;;;;;;;;;5091940;28;20193;-54
2021/04/20 06:02:34;;;;;;;23.77;16.00;;;;;;;;;;5092563;28;20162;-55
2021/04/20 06:05:03;;;;;;;26.77;16.95;;;;;;;;;;5092085;28;20167;-55
2021/04/20 06:07:29;;;;;;;28.20;15.95;;;;;;;;;;5092295;28;20240;-54
2021/04/20 06:09:56;;;;;;;26.80;16.58;;;;;;;;;;5092167;28;20199;-54
2021/04/20 06:12:22;;;;;;;23.98;16.80;;;;;;;;;;5092227;28;20666;-55
2021/04/20 06:14:51;;;;;;;30.90;16.70;;;;;;;;;;5092479;28;20177;-55
2021/04/20 06:17:17;;;;;;;28.90;18.17;;;;;;;;;;5091726;28;20961;-55
2021/04/20 06:19:43;;;;;;;29.70;16.67;;;;;;;;;;5091971;28;21002;-55
2021/04/20 06:22:15;;;;;;;32.30;18.20;;;;;;;;;;5091934;28;20429;-54
2021/04/20 06:24:41;;;;;;;31.70;16.60;;;;;;;;;;5092206;28;20404;-55
2021/04/20 06:27:08;;;;;;;31.50;16.50;;;;;;;;;;5091618;28;20397;-54
2021/04/20 06:29:34;;;;;;;24.20;16.00;;;;;;;;;;5091779;28;20423;-54
2021/04/20 06:32:00;;;;;;;22.90;16.47;;;;;;;;;;5091697;28;20929;-55
2021/04/20 06:34:26;;;;;;;24.83;15.40;;;;;;;;;;5091746;28;20399;-55
2021/04/20 06:36:53;;;;;;;22.53;14.40;;;;;;;;;;5091323;28;20476;-55
2021/04/20 06:39:22;;;;;;;27.93;15.30;;;;;;;;;;5091687;28;21024;-54
2021/04/20 06:41:52;;;;;;;16.90;13.60;;;;;;;;;;5091724;28;20765;-55
2021/04/20 06:44:26;;;;;;;21.60;15.43;;;;;;;;;;5092086;28;20452;-55
2021/04/20 06:47:15;;;;;;;20.40;14.60;;;;;;;;;;5091341;28;20448;-54
2021/04/20 06:49:52;;;;;;;20.70;15.27;;;;;;;;;;5083496;28;20446;-55
2021/04/20 06:52:29;;;;;;;20.10;14.40;;;;;;;;;;5091543;28;20413;-55
2021/04/20 06:55:18;;;;;;;27.70;15.40;;;;;;;;;;5091451;28;20402;-54
2021/04/20 06:58:03;;;;;;;19.10;13.97;;;;;;;;;;5091373;28;20480;-54
2021/04/20 07:00:33;;;;;;;20.80;14.30;;;;;;;;;;5091325;28;20464;-55
2021/04/20 07:03:03;;;;;;;19.50;14.77;;;;;;;;;;5091324;28;20398;-56
2021/04/20 07:05:32;;;;;;;21.40;15.63;;;;;;;;;;5091098;28;20402;-56
2021/04/20 07:08:05;;;;;;;21.37;13.80;;;;;;;;;;5091290;28;20407;-55
2021/04/20 07:10:32;;;;;;;17.90;12.93;;;;;;;;;;5091224;28;20415;-54
2021/04/20 07:13:00;;;;;;;18.83;13.87;;;;;;;;;;5090653;28;20400;-55
2021/04/20 07:15:27;;;;;;;18.63;14.23;;;;;;;;;;5090846;28;20801;-56
2021/04/20 07:17:55;;;;;;;19.10;13.60;;;;;;;;;;5091094;28;20974;-54
2021/04/20 07:20:40;;;;;;;19.70;12.60;;;;;;;;;;5091026;28;20813;-55
2021/04/20 07:23:15;;;;;;;22.00;15.40;;;;;;;;;;5091336;28;20420;-55
2021/04/20 07:25:44;;;;;;;18.77;13.10;;;;;;;;;;5090937;28;20957;-55
2021/04/20 07:28:22;;;;;;;18.10;12.87;;;;;;;;;;5091181;28;20898;-55
2021/04/20 07:31:00;;;;;;;17.70;13.10;;;;;;;;;;5090815;28;20422;-55
2021/04/20 07:33:38;;;;;;;16.53;13.57;;;;;;;;;;5090920;28;20419;-56
2021/04/20 07:36:12;;;;;;;16.67;11.90;;;;;;;;;;5090594;28;20392;-56
2021/04/20 07:38:58;;;;;;;17.30;13.00;;;;;;;;;;5090856;28;20454;-56
2021/04/20 07:41:27;;;;;;;16.30;11.50;;;;;;;;;;5090974;28;20403;-56
2021/04/20 07:43:53;;;;;;;13.87;11.20;;;;;;;;;;5090880;28;20422;-56
2021/04/20 07:46:29;;;;;;;15.47;12.03;;;;;;;;;;5090416;28;20404;-55
2021/04/20 07:49:06;;;;;;;13.47;11.57;;;;;;;;;;5090825;28;20464;-55
2021/04/20 07:51:38;;;;;;;13.37;11.10;;;;;;;;;;5090602;28;20448;-55
2021/04/20 07:54:11;;;;;;;15.40;11.87;;;;;;;;;;5090696;28;20426;-55
2021/04/20 07:56:44;;;;;;;15.10;11.70;;;;;;;;;;5090327;28;20373;-56
2021/04/20 07:59:12;;;;;;;13.33;11.33;;;;;;;;;;5090469;28;20537;-56
2021/04/20 08:01:53;;;;;;;12.47;10.40;;;;;;;;;;5090420;28;20451;-56
2021/04/20 08:04:26;;;;;;;11.87;10.63;;;;;;;;;;5090647;28;20899;-57
2021/04/20 08:06:54;;;;;;;11.80;10.60;;;;;;;;;;5090247;28;20415;-56
2021/04/20 08:09:24;;;;;;;14.03;12.00;;;;;;;;;;5090582;28;20431;-56
2021/04/20 08:11:54;;;;;;;13.80;11.57;;;;;;;;;;5090676;28;20388;-57
2021/04/20 08:14:25;;;;;;;14.00;11.30;;;;;;;;;;5090405;28;20813;-55
2021/04/20 08:17:10;;;;;;;12.73;11.40;;;;;;;;;;5090058;28;20408;-56
2021/04/20 08:19:43;;;;;;;13.77;10.63;;;;;;;;;;5091658;28;20441;-57
2021/04/20 08:22:12;;;;;;;13.27;11.80;;;;;;;;;;5081725;28;20557;-57
2021/04/20 08:25:01;;;;;;;12.33;11.13;;;;;;;;;;5093207;28;20806;-56
2021/04/20 08:27:42;;;;;;;12.50;11.20;;;;;;;;;;5083629;28;20407;-55
2021/04/20 08:30:15;;;;;;;16.13;11.80;;;;;;;;;;5094241;28;20418;-56
2021/04/20 08:32:43;;;;;;;13.07;11.70;;;;;;;;;;5094288;28;20383;-56
2021/04/20 08:35:21;;;;;;;13.73;12.30;;;;;;;;;;5093608;28;20474;-57
2021/04/20 08:38:07;;;;;;;13.83;12.33;;;;;;;;;;5094059;28;20976;-58
2021/04/20 08:40:43;;;;;;;13.20;11.90;;;;;;;;;;5094411;28;20435;-57
2021/04/20 08:43:19;;;;;;;12.00;10.80;;;;;;;;;;5076360;28;20422;-57
2021/04/20 08:45:50;;;;;;;12.57;11.27;;;;;;;;;;5075927;28;20411;-57
2021/04/20 08:48:23;;;;;;;12.97;11.67;;;;;;;;;;5093949;28;20399;-57
2021/04/20 08:51:09;;;;;;;17.30;12.73;;;;;;;;;;5093880;28;20906;-57
2021/04/20 08:53:58;;;;;;;14.50;12.50;;;;;;;;;;5093832;28;20442;-57
2021/04/20 08:56:31;;;;;;;14.40;13.00;;;;;;;;;;5093434;28;20402;-57
2021/04/20 08:59:09;;;;;;;13.13;11.50;;;;;;;;;;5093457;28;20569;-57
2021/04/20 09:01:47;;;;;;;14.03;12.60;;;;;;;;;;5093525;28;20399;-57
2021/04/20 09:04:32;;;;;;;14.00;12.10;;;;;;;;;;5093631;28;20395;-58
2021/04/20 09:07:02;;;;;;;13.77;12.37;;;;;;;;;;5093334;28;20441;-58
2021/04/20 09:09:30;;;;;;;12.60;11.20;;;;;;;;;;5075227;28;20423;-58
2021/04/20 09:11:59;;;;;;;14.30;12.73;;;;;;;;;;5093406;28;20399;-58
2021/04/20 09:14:27;;;;;;;14.70;13.20;;;;;;;;;;5093925;28;20402;-55
2021/04/20 09:17:01;;;;;;;13.60;12.30;;;;;;;;;;5093146;28;20421;-54
2021/04/20 09:19:27;;;;;;;14.83;13.30;;;;;;;;;;5093448;28;20432;-53
2021/04/20 09:21:58;;;;;;;14.33;12.90;;;;;;;;;;5093313;28;20407;-53
2021/04/20 09:24:27;;;;;;;14.67;13.10;;;;;;;;;;5093226;28;20247;-53
2021/04/20 09:26:59;;;;;;;14.27;12.77;;;;;;;;;;5093120;28;21047;-53
2021/04/20 09:29:44;;;;;;;14.83;13.43;;;;;;;;;;5093011;28;20431;-53
2021/04/20 09:32:21;;;;;;;13.77;12.07;;;;;;;;;;5093041;28;20988;-53
2021/04/20 09:34:49;;;;;;;16.60;13.03;;;;;;;;;;5074332;28;20412;-53
2021/04/20 09:37:15;;;;;;;13.77;12.27;;;;;;;;;;5074820;28;20459;-53
2021/04/20 09:39:43;;;;;;;12.07;10.93;;;;;;;;;;5093292;28;20513;-56
2021/04/20 09:42:11;;;;;;;12.57;11.27;;;;;;;;;;5075369;28;20407;-53
2021/04/20 09:44:43;;;;;;;13.10;11.83;;;;;;;;;;5075039;28;20414;-53
2021/04/20 09:47:36;;;;;;;13.33;11.97;;;;;;;;;;5093279;28;20775;-53
2021/04/20 09:50:12;;;;;;;15.50;12.03;;;;;;;;;;5089199;28;20785;-56
2021/04/20 09:52:57;;;;;;;14.20;12.83;;;;;;;;;;5092736;28;20785;-56
2021/04/20 09:55:30;;;;;;;13.83;12.43;;;;;;;;;;5092067;28;20402;-56
2021/04/20 09:57:57;;;;;;;15.87;13.13;;;;;;;;;;5092883;28;20853;-53
2021/04/20 10:00:23;;;;;;;13.53;12.13;;;;;;;;;;5092306;28;20818;-53
2021/04/20 10:02:52;;;;;;;14.70;13.00;;;;;;;;;;5092277;28;20914;-54
2021/04/20 10:05:37;;;;;;;14.10;12.60;;;;;;;;;;5092307;28;20395;-54
2021/04/20 10:08:18;;;;;;;14.20;12.80;;;;;;;;;;5092081;28;20485;-56
2021/04/20 10:11:04;;;;;;;14.40;12.00;;;;;;;;;;5092230;28;20415;-54
2021/04/20 10:13:29;;;;;;;15.63;12.57;;;;;;;;;;5092064;28;20914;-53
2021/04/20 10:16:07;;;;;;;12.50;11.20;;;;;;;;;;5091842;28;20399;-54
2021/04/20 10:18:33;;;;;;;12.17;10.90;;;;;;;;;;5092091;28;20197;-53
2021/04/20 10:21:11;;;;;;;13.03;11.67;;;;;;;;;;5092034;28;21006;-53
2021/04/20 10:23:47;;;;;;;15.40;13.50;;;;;;;;;;5091869;28;20173;-53
2021/04/20 10:26:31;;;;;;;17.23;14.20;;;;;;;;;;5091797;28;20430;-54
2021/04/20 10:29:00;;;;;;;14.80;12.90;;;;;;;;;;5091696;28;20427;-54
2021/04/20 10:31:44;;;;;;;21.33;12.37;;;;;;;;;;5091909;28;20434;-54
2021/04/20 10:34:11;;;;;;;13.43;12.03;;;;;;;;;;5091695;28;20487;-53
2021/04/20 10:36:37;;;;;;;16.00;13.50;;;;;;;;;;5091524;28;20395;-54
2021/04/20 10:39:07;;;;;;;15.80;14.20;;;;;;;;;;5091374;28;20459;-54
2021/04/20 10:41:33;;;;;;;17.60;14.90;;;;;;;;;;5091734;28;20396;-53
2021/04/20 10:44:00;;;;;;;16.57;14.30;;;;;;;;;;5091598;28;20440;-54
2021/04/20 10:46:28;;;;;;;16.20;14.47;;;;;;;;;;5090760;28;20399;-53
2021/04/20 10:48:55;;;;;;;14.70;13.07;;;;;;;;;;5089453;28;20809;-53
2021/04/20 10:51:49;;;;;;;15.00;13.40;;;;;;;;;;5091394;28;20431;-54
2021/04/20 10:54:19;;;;;;;18.20;15.57;;;;;;;;;;5088365;28;20430;-53
2021/04/20 10:56:55;;;;;;;17.20;15.37;;;;;;;;;;5090845;28;21064;-53
2021/04/20 10:59:25;;;;;;;17.50;15.07;;;;;;;;;;5091192;28;20449;-55
2021/04/20 11:01:51;;;;;;;17.83;14.27;;;;;;;;;;5091419;28;20407;-54
2021/04/20 11:04:21;;;;;;;16.53;13.70;;;;;;;;;;5091303;28;20449;-53
2021/04/20 11:07:06;;;;;;;18.03;14.30;;;;;;;;;;5090825;28;20442;-54
2021/04/20 11:09:33;;;;;;;15.60;13.17;;;;;;;;;;5091092;28;20419;-55
2021/04/20 11:11:59;;;;;;;22.20;14.07;;;;;;;;;;5091229;28;20403;-53
2021/04/20 11:14:38;;;;;;;14.53;12.63;;;;;;;;;;5091198;28;20479;-53
2021/04/20 11:17:04;;;;;;;19.47;13.70;;;;;;;;;;5090695;28;20538;-55
2021/04/20 11:19:31;;;;;;;23.93;12.97;;;;;;;;;;5090968;28;20419;-54
2021/04/20 11:21:58;;;;;;;14.03;12.00;;;;;;;;;;5090810;28;20399;-53
2021/04/20 11:24:26;;;;;;;14.10;12.30;;;;;;;;;;5090900;28;20453;-55
2021/04/20 11:27:05;;;;;;;13.07;11.67;;;;;;;;;;5091276;28;20888;-56
2021/04/20 11:29:37;;;;;;;16.73;12.97;;;;;;;;;;5090687;28;20440;-57
2021/04/20 11:32:05;;;;;;;13.97;12.60;;;;;;;;;;5090943;28;20403;-57
2021/04/20 11:34:33;;;;;;;23.30;12.90;;;;;;;;;;5090432;28;20403;-57
2021/04/20 11:37:04;;;;;;;15.83;13.27;;;;;;;;;;5090024;28;20403;-56
2021/04/20 11:39:38;;;;;;;15.73;14.10;;;;;;;;;;5090804;28;20419;-56
2021/04/20 11:42:15;;;;;;;19.43;15.53;;;;;;;;;;5090755;28;20403;-56
2021/04/20 11:44:47;;;;;;;17.77;15.00;;;;;;;;;;5090469;28;20399;-56
2021/04/20 11:47:14;;;;;;;17.60;15.80;;;;;;;;;;5090680;28;20403;-56
2021/04/20 11:49:50;;;;;;;17.60;14.30;;;;;;;;;;5090662;28;20415;-57
2021/04/20 11:52:21;;;;;;;20.43;15.23;;;;;;;;;;5090404;28;20485;-56
2021/04/20 11:54:54;;;;;;;15.57;13.97;;;;;;;;;;5090538;28;20407;-56
2021/04/20 11:57:20;;;;;;;16.70;14.83;;;;;;;;;;5089582;28;20563;-57
2021/04/20 11:59:47;;;;;;;15.57;12.47;;;;;;;;;;5093809;28;20496;-56
2021/04/20 12:02:14;;;;;;;14.30;12.90;;;;;;;;;;5094746;28;20872;-55
2021/04/20 12:04:46;;;;;;;15.47;13.10;;;;;;;;;;5094692;28;20400;-57
2021/04/20 12:07:12;;;;;;;15.97;13.10;;;;;;;;;;5094205;28;20486;-55
2021/04/20 12:09:39;;;;;;;14.67;12.70;;;;;;;;;;5094755;28;20515;-55
2021/04/20 12:12:06;;;;;;;17.80;14.53;;;;;;;;;;5094708;28;20887;-55
2021/04/20 12:14:36;;;;;;;15.93;14.43;;;;;;;;;;5094893;28;20407;-58
2021/04/20 12:17:02;;;;;;;21.27;14.00;;;;;;;;;;5093537;28;20788;-56
2021/04/20 12:19:29;;;;;;;16.43;12.57;;;;;;;;;;5092384;28;20419;-56
2021/04/20 12:21:56;;;;;;;17.43;14.60;;;;;;;;;;5093107;28;20460;-56
2021/04/20 12:24:23;;;;;;;17.43;13.93;;;;;;;;;;5092828;28;20895;-56
2021/04/20 12:26:50;;;;;;;20.53;14.67;;;;;;;;;;5093923;28;20395;-57
2021/04/20 12:29:17;;;;;;;15.17;13.57;;;;;;;;;;5093827;28;20919;-58
2021/04/20 12:31:43;;;;;;;26.70;14.93;;;;;;;;;;5094343;28;20397;-56
2021/04/20 12:34:09;;;;;;;16.30;12.83;;;;;;;;;;5093651;28;20399;-56
2021/04/20 12:36:38;;;;;;;17.57;13.53;;;;;;;;;;5097243;28;20418;-57
2021/04/20 12:39:06;;;;;;;16.97;13.67;;;;;;;;;;5091190;28;20954;-57
2021/04/20 12:41:32;;;;;;;16.50;14.80;;;;;;;;;;5085767;28;20404;-56
2021/04/20 12:44:00;;;;;;;16.60;14.07;;;;;;;;;;5073696;28;20405;-56
2021/04/20 12:46:27;;;;;;;18.40;16.27;;;;;;;;;;5078773;28;20915;-56
2021/04/20 12:48:55;;;;;;;18.87;15.20;;;;;;;;;;5078909;28;20919;-57
2021/04/20 12:51:22;;;;;;;17.67;15.13;;;;;;;;;;5091402;28;20422;-57
2021/04/20 12:53:49;;;;;;;21.63;15.20;;;;;;;;;;5094211;28;20411;-55
2021/04/20 12:56:22;;;;;;;18.03;15.63;;;;;;;;;;5078146;28;20795;-54
2021/04/20 12:58:50;;;;;;;25.00;15.50;;;;;;;;;;5091827;28;20467;-55
2021/04/20 13:01:19;;;;;;;22.40;17.17;;;;;;;;;;5093330;28;20407;-54
2021/04/20 13:03:46;;;;;;;18.00;15.00;;;;;;;;;;5092321;28;20438;-56
2021/04/20 13:06:13;;;;;;;15.90;14.20;;;;;;;;;;5093519;28;20880;-55
2021/04/20 13:08:46;;;;;;;17.53;15.20;;;;;;;;;;5093690;28;20400;-56
2021/04/20 13:11:23;;;;;;;17.03;14.07;;;;;;;;;;5092804;28;20422;-55
2021/04/20 13:13:50;;;;;;;20.13;16.57;;;;;;;;;;5093503;28;20407;-55
2021/04/20 13:16:16;;;;;;;20.03;15.50;;;;;;;;;;5093649;28;20400;-56
2021/04/20 13:18:42;;;;;;;18.80;15.53;;;;;;;;;;5092968;28;20941;-55
2021/04/20 13:21:10;;;;;;;21.57;15.60;;;;;;;;;;5093569;28;20408;-57
2021/04/20 13:23:37;;;;;;;17.07;14.07;;;;;;;;;;5093245;28;20407;-55
2021/04/20 13:26:04;;;;;;;14.37;13.10;;;;;;;;;;5093054;28;20410;-57
2021/04/20 13:28:35;;;;;;;15.10;12.50;;;;;;;;;;5093139;28;20918;-57
2021/04/20 13:31:03;;;;;;;15.57;13.97;;;;;;;;;;5092942;28;20404;-56
2021/04/20 13:33:30;;;;;;;14.33;12.83;;;;;;;;;;5093024;28;20411;-57
2021/04/20 13:35:57;;;;;;;16.47;13.50;;;;;;;;;;5092673;28;20407;-57
2021/04/20 13:38:24;;;;;;;13.87;12.47;;;;;;;;;;5093063;28;20455;-55
2021/04/20 13:40:51;;;;;;;16.30;12.23;;;;;;;;;;5092769;28;20419;-56
2021/04/20 13:43:17;;;;;;;18.37;13.57;;;;;;;;;;5092815;28;20423;-56
2021/04/20 13:45:44;;;;;;;16.60;14.30;;;;;;;;;;5092307;28;20403;-55
2021/04/20 13:48:10;;;;;;;18.07;15.10;;;;;;;;;;5092762;28;20403;-54
2021/04/20 13:50:37;;;;;;;16.17;14.57;;;;;;;;;;5092554;28;20427;-56
2021/04/20 13:53:09;;;;;;;17.03;15.33;;;;;;;;;;5092667;28;20423;-55
2021/04/20 13:55:37;;;;;;;16.73;14.93;;;;;;;;;;5092863;28;20434;-56
2021/04/20 13:58:07;;;;;;;16.47;13.10;;;;;;;;;;5092357;28;20443;-56
2021/04/20 14:00:36;;;;;;;16.23;13.63;;;;;;;;;;5092561;28;20818;-57
2021/04/20 14:03:03;;;;;;;15.33;13.73;;;;;;;;;;5092334;28;20399;-56
2021/04/20 14:05:30;;;;;;;16.17;14.57;;;;;;;;;;5092242;28;20948;-57
2021/04/20 14:07:56;;;;;;;16.73;15.00;;;;;;;;;;5092313;28;20396;-56
2021/04/20 14:10:23;;;;;;;21.57;14.67;;;;;;;;;;5092795;28;20510;-56
2021/04/20 14:12:54;;;;;;;15.07;13.50;;;;;;;;;;5092090;28;20396;-58
2021/04/20 14:15:31;;;;;;;13.80;12.40;;;;;;;;;;5091756;28;20442;-56
2021/04/20 14:18:23;;;;;;;14.30;12.90;;;;;;;;;;5092220;28;20446;-57
2021/04/20 14:20:49;;;;;;;15.20;13.60;;;;;;;;;;5089203;28;20926;-57
2021/04/20 14:23:16;;;;;;;12.43;11.13;;;;;;;;;;5091842;28;20395;-57
2021/04/20 14:25:44;;;;;;;15.23;11.80;;;;;;;;;;5091801;28;20907;-56
2021/04/20 14:28:11;;;;;;;17.20;12.17;;;;;;;;;;5091955;28;20488;-56
2021/04/20 14:30:38;;;;;;;13.37;11.67;;;;;;;;;;5091790;28;20423;-56